createdAt,value
2023-07-05T00:01:17.771Z,13.44
2023-07-05T00:03:47.755Z,13.42
2023-07-05T00:06:15.980Z,13.40
2023-07-05T00:08:43.472Z,13.39
2023-07-05T00:11:12.406Z,13.38
2023-07-05T00:13:43.010Z,13.37
2023-07-05T00:16:13.462Z,13.37
2023-07-05T00:18:42.618Z,13.37
2023-07-05T00:21:11.746Z,13.39
2023-07-05T00:23:45.397Z,13.40
2023-07-05T00:26:15.646Z,13.42
2023-07-05T00:28:45.582Z,13.42
2023-07-05T00:31:13.825Z,13.43
2023-07-05T00:33:41.487Z,13.43
2023-07-05T00:36:09.252Z,13.40
2023-07-05T00:38:36.719Z,13.36
2023-07-05T00:41:04.170Z,13.32
2023-07-05T00:43:31.849Z,13.28
2023-07-05T00:46:25.235Z,13.26
2023-07-05T00:48:56.049Z,13.25
2023-07-05T00:51:40.167Z,13.23
2023-07-05T00:54:08.191Z,13.20
2023-07-05T00:56:42.437Z,13.17
2023-07-05T00:59:15.334Z,13.11
2023-07-05T01:02:01.607Z,13.06
2023-07-05T01:04:36.433Z,13.01
2023-07-05T01:07:06.724Z,12.98
2023-07-05T01:09:34.475Z,12.96
2023-07-05T01:12:23.870Z,12.93
2023-07-05T01:15:09.966Z,12.90
2023-07-05T01:17:54.852Z,12.87
2023-07-05T01:20:48.168Z,12.86
2023-07-05T01:24:03.491Z,12.86
2023-07-05T01:26:47.680Z,12.86
2023-07-05T01:30:04.755Z,12.88
2023-07-05T01:32:43.062Z,12.88
2023-07-05T01:35:23.218Z,12.87
2023-07-05T01:37:53.128Z,12.86
2023-07-05T01:40:22.810Z,12.86
2023-07-05T01:43:03.117Z,12.85
2023-07-05T01:46:11.316Z,12.85
2023-07-05T01:48:39.581Z,12.88
2023-07-05T01:51:45.046Z,13.01
2023-07-05T01:54:37.974Z,13.06
2023-07-05T01:57:14.313Z,12.99
2023-07-05T02:00:09.917Z,12.94
2023-07-05T02:02:43.648Z,12.90
2023-07-05T02:05:13.179Z,12.88
2023-07-05T02:07:46.239Z,12.87
2023-07-05T02:10:15.309Z,12.86
2023-07-05T02:12:45.612Z,12.87
2023-07-05T02:15:15.476Z,12.87
2023-07-05T02:17:44.422Z,12.89
2023-07-05T02:20:12.945Z,12.91
2023-07-05T02:22:40.197Z,12.92
2023-07-05T02:25:08.617Z,12.90
2023-07-05T02:27:36.128Z,12.88
2023-07-05T02:30:06.726Z,12.85
2023-07-05T02:32:34.196Z,12.85
2023-07-05T02:35:04.741Z,12.85
2023-07-05T02:37:33.461Z,12.86
2023-07-05T02:40:02.531Z,12.86
2023-07-05T02:42:30.024Z,12.86
2023-07-05T02:44:57.440Z,12.87
2023-07-05T02:47:26.700Z,12.85
2023-07-05T02:49:55.894Z,12.83
2023-07-05T02:52:25.286Z,12.84
2023-07-05T02:54:54.826Z,12.86
2023-07-05T02:57:24.288Z,12.96
2023-07-05T02:59:52.074Z,13.22
2023-07-05T03:02:19.205Z,13.55
2023-07-05T03:04:49.475Z,13.88
2023-07-05T03:07:18.602Z,14.19
2023-07-05T03:09:50.145Z,14.50
2023-07-05T03:12:21.494Z,14.80
2023-07-05T03:14:50.312Z,15.03
2023-07-05T03:17:18.681Z,15.20
2023-07-05T03:19:45.921Z,15.29
2023-07-05T03:22:13.954Z,15.27
2023-07-05T03:24:41.260Z,15.20
2023-07-05T03:27:08.372Z,15.16
2023-07-05T03:29:37.023Z,15.14
2023-07-05T03:32:08.789Z,15.22
2023-07-05T03:34:38.172Z,15.72
2023-07-05T03:37:05.939Z,16.56
2023-07-05T03:39:33.058Z,17.14
2023-07-05T03:42:03.910Z,17.40
2023-07-05T03:44:31.126Z,17.66
2023-07-05T03:46:58.250Z,18.05
2023-07-05T03:49:25.309Z,18.56
2023-07-05T03:51:52.473Z,19.08
2023-07-05T03:54:19.666Z,19.38
2023-07-05T03:56:46.887Z,19.60
2023-07-05T03:59:13.949Z,19.76
2023-07-05T04:01:41.156Z,19.91
2023-07-05T04:04:09.285Z,20.13
2023-07-05T04:06:37.492Z,20.40
2023-07-05T04:09:05.770Z,20.67
2023-07-05T04:11:35.734Z,20.94
2023-07-05T04:14:04.182Z,21.24
2023-07-05T04:16:33.684Z,21.55
2023-07-05T04:19:02.156Z,21.88
2023-07-05T04:21:30.390Z,22.26
2023-07-05T04:23:59.680Z,22.61
2023-07-05T04:26:30.043Z,22.96
2023-07-05T04:28:57.750Z,23.31
2023-07-05T04:31:30.821Z,23.70
2023-07-05T04:34:01.061Z,24.08
2023-07-05T04:36:29.632Z,24.46
2023-07-05T04:38:59.141Z,24.89
2023-07-05T04:41:26.893Z,25.28
2023-07-05T04:43:54.197Z,25.51
2023-07-05T04:46:22.676Z,25.67
2023-07-05T04:48:49.411Z,25.99
2023-07-05T04:51:16.034Z,26.29
2023-07-05T04:53:42.616Z,26.54
2023-07-05T04:56:14.217Z,26.71
2023-07-05T04:58:41.741Z,26.73
2023-07-05T05:01:09.632Z,26.61
2023-07-05T05:03:36.383Z,26.39
2023-07-05T05:06:03.243Z,26.15
2023-07-05T05:08:29.894Z,25.91
2023-07-05T05:11:01.076Z,25.47
2023-07-05T05:13:31.869Z,24.83
2023-07-05T05:15:59.836Z,24.32
2023-07-05T05:18:32.316Z,23.88
2023-07-05T05:20:59.460Z,23.57
2023-07-05T05:23:27.389Z,23.31
2023-07-05T05:25:54.096Z,23.09
2023-07-05T05:28:20.772Z,22.91
2023-07-05T05:30:48.855Z,22.75
2023-07-05T05:33:17.613Z,22.56
2023-07-05T05:35:49.519Z,22.18
2023-07-05T05:38:20.367Z,21.65
2023-07-05T05:40:51.388Z,21.14
2023-07-05T05:43:20.078Z,20.80
2023-07-05T05:45:47.421Z,20.67
2023-07-05T05:48:14.042Z,20.64
2023-07-05T05:50:40.573Z,20.60
2023-07-05T05:53:07.214Z,20.51
2023-07-05T05:55:33.985Z,20.45
2023-07-05T05:58:00.393Z,20.46
2023-07-05T06:00:31.646Z,20.51
2023-07-05T06:02:58.180Z,20.59
2023-07-05T06:05:25.935Z,20.75
2023-07-05T06:07:54.123Z,20.90
2023-07-05T06:10:22.702Z,20.99
2023-07-05T06:12:49.295Z,21.06
2023-07-05T06:15:16.280Z,21.00
2023-07-05T06:17:43.332Z,20.94
2023-07-05T06:20:12.876Z,20.85
2023-07-05T06:22:39.691Z,20.79
2023-07-05T06:25:07.086Z,20.72
2023-07-05T06:27:34.611Z,20.67
2023-07-05T06:30:01.103Z,20.67
2023-07-05T06:32:27.739Z,20.65
2023-07-05T06:34:54.292Z,20.56
2023-07-05T06:37:20.793Z,20.43
2023-07-05T06:39:47.375Z,20.31
2023-07-05T06:42:14.120Z,20.23
2023-07-05T06:44:40.854Z,20.24
2023-07-05T06:47:07.357Z,20.28
2023-07-05T06:49:34.092Z,20.27
2023-07-05T06:52:00.604Z,20.24
2023-07-05T06:54:27.176Z,20.25
2023-07-05T06:56:53.679Z,20.31
2023-07-05T06:59:20.143Z,20.43
2023-07-05T07:01:46.977Z,20.58
2023-07-05T07:04:13.470Z,20.74
2023-07-05T07:06:39.937Z,20.85
2023-07-05T07:09:06.797Z,20.87
2023-07-05T07:11:33.365Z,20.77
2023-07-05T07:13:59.892Z,20.76
2023-07-05T07:16:26.510Z,20.86
2023-07-05T07:18:53.202Z,21.03
2023-07-05T07:21:19.937Z,21.19
2023-07-05T07:23:48.177Z,21.30
2023-07-05T07:26:23.289Z,21.40
2023-07-05T07:28:54.073Z,21.42
2023-07-05T07:31:25.882Z,21.49
2023-07-05T07:33:53.604Z,21.60
2023-07-05T07:36:30.197Z,21.64
2023-07-05T07:38:57.764Z,21.70
2023-07-05T07:41:29.038Z,21.71
2023-07-05T07:44:00.448Z,21.68
2023-07-05T07:46:30.189Z,21.72
2023-07-05T07:49:00.467Z,21.83
2023-07-05T07:54:02.199Z,21.95
2023-07-05T07:56:29.714Z,21.95
2023-07-05T07:58:59.380Z,21.98
2023-07-05T08:01:32.935Z,22.10
2023-07-05T08:04:03.674Z,22.26
2023-07-05T08:06:36.968Z,22.36
2023-07-05T08:09:06.228Z,22.46
2023-07-05T08:11:36.750Z,22.56
2023-07-05T08:14:03.854Z,22.57
2023-07-05T08:16:30.749Z,22.58
2023-07-05T08:18:58.550Z,22.69
2023-07-05T08:21:25.822Z,22.87
2023-07-05T08:23:52.766Z,23.03
2023-07-05T08:26:19.695Z,23.16
2023-07-05T08:28:46.569Z,23.28
2023-07-05T08:31:13.649Z,23.34
2023-07-05T08:33:42.047Z,23.37
2023-07-05T08:36:19.596Z,23.50
2023-07-05T08:38:52.459Z,23.67
2023-07-05T08:41:52.667Z,23.79
2023-07-05T08:44:28.251Z,23.96
2023-07-05T08:47:18.997Z,24.06
2023-07-05T08:50:23.282Z,24.13
2023-07-05T08:53:00.924Z,24.24
2023-07-05T08:55:43.192Z,24.37
2023-07-05T08:58:17.827Z,24.55
2023-07-05T09:00:54.593Z,24.72
2023-07-05T09:03:23.965Z,24.92
2023-07-05T09:06:49.669Z,25.05
2023-07-05T09:09:54.252Z,25.22
2023-07-05T09:12:55.373Z,25.32
2023-07-05T09:15:30.426Z,25.22
2023-07-05T09:18:10.641Z,25.17
2023-07-05T09:20:48.642Z,25.32
2023-07-05T09:23:30.698Z,25.58
2023-07-05T09:26:11.448Z,25.76
2023-07-05T09:28:52.520Z,25.83
2023-07-05T09:31:22.791Z,25.83
2023-07-05T09:34:07.305Z,25.84
2023-07-05T09:36:34.741Z,25.79
2023-07-05T09:39:29.330Z,25.66
2023-07-05T09:42:00.759Z,25.61
2023-07-05T09:44:28.016Z,25.80
2023-07-05T09:46:54.527Z,26.06
2023-07-05T09:49:21.269Z,26.23
2023-07-05T09:51:47.924Z,26.33
2023-07-05T09:54:32.285Z,26.42
2023-07-05T09:57:05.076Z,26.38
2023-07-05T09:59:37.041Z,26.36
2023-07-05T10:02:15.682Z,26.47
2023-07-05T10:04:49.603Z,26.67
2023-07-05T10:07:22.670Z,26.80
2023-07-05T10:10:11.189Z,26.91
2023-07-05T10:12:42.406Z,27.04
2023-07-05T10:15:24.119Z,27.15
2023-07-05T10:17:54.229Z,27.26
2023-07-05T10:20:38.342Z,27.29
2023-07-05T10:23:18.398Z,27.18
2023-07-05T10:25:47.289Z,27.16
2023-07-05T10:28:19.646Z,27.25
2023-07-05T10:30:57.394Z,27.39
2023-07-05T10:33:30.799Z,27.52
2023-07-05T10:36:11.571Z,27.56
2023-07-05T10:38:50.810Z,27.53
2023-07-05T10:41:19.908Z,27.49
2023-07-05T10:44:02.835Z,27.48
2023-07-05T10:46:30.174Z,27.46
2023-07-05T10:48:58.337Z,27.53
2023-07-05T10:51:33.902Z,27.62
2023-07-05T10:54:15.030Z,27.59
2023-07-05T10:56:44.885Z,27.51
2023-07-05T10:59:38.557Z,27.46
2023-07-05T11:02:23.940Z,27.44
2023-07-05T11:04:54.511Z,27.38
2023-07-05T11:07:22.319Z,27.39
2023-07-05T11:09:49.149Z,27.44
2023-07-05T11:12:24.447Z,27.53
2023-07-05T11:14:53.083Z,27.61
2023-07-05T11:17:38.244Z,27.74
2023-07-05T11:20:39.968Z,27.78
2023-07-05T11:23:12.457Z,27.81
2023-07-05T11:26:01.009Z,27.90
2023-07-05T11:28:39.293Z,28.03
2023-07-05T11:31:29.979Z,28.14
2023-07-05T11:34:21.780Z,28.18
2023-07-05T11:36:51.241Z,28.14
2023-07-05T11:39:48.910Z,28.10
2023-07-05T11:42:15.563Z,28.12
2023-07-05T11:45:04.831Z,28.12
2023-07-05T11:47:34.813Z,28.10
2023-07-05T11:50:07.845Z,28.14
2023-07-05T11:53:00.453Z,28.26
2023-07-05T11:55:35.483Z,28.37
2023-07-05T11:58:27.351Z,28.39
2023-07-05T12:01:03.011Z,28.43
2023-07-05T12:03:37.367Z,28.56
2023-07-05T12:06:21.660Z,28.60
2023-07-05T12:08:56.345Z,28.57
2023-07-05T12:11:42.667Z,28.58
2023-07-05T12:14:16.020Z,28.55
2023-07-05T12:16:44.094Z,28.52
2023-07-05T12:19:30.930Z,28.44
2023-07-05T12:22:05.161Z,28.39
2023-07-05T12:24:46.827Z,28.34
2023-07-05T12:27:29.022Z,28.34
2023-07-05T12:29:59.781Z,28.37
2023-07-05T12:32:29.520Z,28.49
2023-07-05T12:35:12.573Z,28.63
2023-07-05T12:37:39.362Z,28.79
2023-07-05T12:40:28.312Z,28.86
2023-07-05T12:43:06.741Z,28.89
2023-07-05T12:45:40.439Z,28.92
2023-07-05T12:48:26.066Z,28.94
2023-07-05T12:51:23.761Z,28.91
2023-07-05T12:53:57.385Z,28.88
2023-07-05T12:56:34.784Z,28.89
2023-07-05T12:59:34.577Z,28.91
2023-07-05T13:02:07.135Z,28.88
2023-07-05T13:04:38.204Z,28.88
2023-07-05T13:07:06.370Z,28.84
2023-07-05T13:09:36.872Z,28.79
2023-07-05T13:12:12.142Z,28.82
2023-07-05T13:14:44.736Z,28.94
2023-07-05T13:17:25.634Z,29.02
2023-07-05T13:20:20.564Z,29.11
2023-07-05T13:22:57.873Z,29.20
2023-07-05T13:25:43.299Z,29.20
2023-07-05T13:28:25.193Z,29.27
2023-07-05T13:30:57.542Z,29.38
2023-07-05T13:33:25.202Z,29.43
2023-07-05T13:35:52.664Z,29.48
2023-07-05T13:38:22.091Z,29.55
2023-07-05T13:41:04.275Z,29.60
2023-07-05T13:43:32.156Z,29.69
2023-07-05T13:46:00.798Z,29.75
2023-07-05T13:48:27.695Z,29.81
2023-07-05T13:50:54.656Z,29.83
2023-07-05T13:53:26.503Z,29.77
2023-07-05T13:55:52.987Z,29.70
2023-07-05T13:58:22.265Z,29.68
2023-07-05T14:00:48.731Z,29.65
2023-07-05T14:03:15.372Z,29.61
2023-07-05T14:05:42.641Z,29.52
2023-07-05T14:08:15.578Z,29.37
2023-07-05T14:10:49.273Z,29.26
2023-07-05T14:13:17.254Z,29.28
2023-07-05T14:15:45.813Z,29.39
2023-07-05T14:18:18.500Z,29.56
2023-07-05T14:20:48.244Z,29.73
2023-07-05T14:23:17.442Z,29.85
2023-07-05T14:25:49.414Z,29.89
2023-07-05T14:28:17.021Z,29.86
2023-07-05T14:30:45.720Z,29.84
2023-07-05T14:33:21.660Z,29.89
2023-07-05T14:35:48.416Z,30.00
2023-07-05T14:38:14.907Z,30.10
2023-07-05T14:40:45.172Z,30.15
2023-07-05T14:43:15.028Z,30.19
2023-07-05T14:45:44.493Z,30.17
2023-07-05T14:48:11.456Z,30.13
2023-07-05T14:50:37.923Z,29.99
2023-07-05T14:53:12.951Z,29.80
2023-07-05T14:55:39.651Z,29.64
2023-07-05T14:58:13.046Z,29.52
2023-07-05T15:00:40.857Z,29.46
2023-07-05T15:03:15.189Z,29.43
2023-07-05T15:05:41.765Z,29.38
2023-07-05T15:08:10.778Z,29.31
2023-07-05T15:10:37.315Z,29.19
2023-07-05T15:13:07.003Z,29.07
2023-07-05T15:15:39.365Z,28.97
2023-07-05T15:18:05.939Z,28.86
2023-07-05T15:20:35.291Z,28.74
2023-07-05T15:23:02.869Z,28.66
2023-07-05T15:25:29.782Z,28.60
2023-07-05T15:27:57.198Z,28.54
2023-07-05T15:30:27.107Z,28.49
2023-07-05T15:32:54.746Z,28.43
2023-07-05T15:35:24.998Z,28.36
2023-07-05T15:37:51.440Z,28.28
2023-07-05T15:40:20.117Z,28.20
2023-07-05T15:42:50.531Z,28.10
2023-07-05T15:45:19.689Z,28.00
2023-07-05T15:47:46.944Z,27.89
2023-07-05T15:50:17.810Z,27.78
2023-07-05T15:52:45.938Z,27.69
2023-07-05T15:55:13.600Z,27.61
2023-07-05T15:57:42.055Z,27.54
2023-07-05T16:00:23.347Z,27.45
2023-07-05T16:02:58.484Z,27.36
2023-07-05T16:05:37.560Z,27.30
2023-07-05T16:08:06.025Z,27.24
2023-07-05T16:10:39.032Z,27.19
2023-07-05T16:13:05.989Z,27.15
2023-07-05T16:15:37.522Z,27.10
2023-07-05T16:18:07.224Z,27.07
2023-07-05T16:20:36.665Z,27.02
2023-07-05T16:23:04.177Z,26.81
2023-07-05T16:25:31.878Z,26.39
2023-07-05T16:27:58.747Z,25.88
2023-07-05T16:30:25.509Z,25.29
2023-07-05T16:32:52.169Z,24.70
2023-07-05T16:35:19.158Z,24.08
2023-07-05T16:37:45.723Z,23.40
2023-07-05T16:40:12.414Z,22.81
2023-07-05T16:42:39.556Z,22.27
2023-07-05T16:45:08.402Z,21.83
2023-07-05T16:47:34.870Z,21.52
2023-07-05T16:50:01.440Z,21.26
2023-07-05T16:52:28.336Z,21.00
2023-07-05T16:54:55.171Z,20.79
2023-07-05T16:57:22.083Z,20.66
2023-07-05T16:59:48.684Z,20.56
2023-07-05T17:02:15.703Z,20.50
2023-07-05T17:04:42.293Z,20.46
2023-07-05T17:07:08.688Z,20.43
2023-07-05T17:09:35.604Z,20.38
2023-07-05T17:12:02.201Z,20.34
2023-07-05T17:14:28.734Z,20.30
2023-07-05T17:16:55.183Z,20.24
2023-07-05T17:19:22.741Z,20.17
2023-07-05T17:21:49.310Z,20.08
2023-07-05T17:24:22.484Z,19.99
2023-07-05T17:26:50.343Z,19.93
2023-07-05T17:29:18.219Z,19.87
2023-07-05T17:31:45.313Z,19.80
2023-07-05T17:34:11.908Z,19.74
2023-07-05T17:36:38.312Z,19.68
2023-07-05T17:39:04.865Z,19.62
2023-07-05T17:41:32.769Z,19.57
2023-07-05T17:43:59.805Z,19.50
2023-07-05T17:46:30.627Z,19.45
2023-07-05T17:49:01.128Z,19.38
2023-07-05T17:51:30.280Z,19.31
2023-07-05T17:53:56.861Z,19.24
2023-07-05T17:56:25.284Z,19.19
2023-07-05T17:58:55.653Z,19.15
2023-07-05T18:01:25.321Z,19.13
2023-07-05T18:03:52.140Z,19.10
2023-07-05T18:06:18.792Z,19.09
2023-07-05T18:08:49.261Z,19.09
2023-07-05T18:11:17.315Z,19.08
2023-07-05T18:13:44.475Z,19.05
2023-07-05T18:16:14.737Z,19.03
2023-07-05T18:18:42.649Z,18.99
2023-07-05T18:21:12.529Z,18.95
2023-07-05T18:23:40.734Z,18.90
2023-07-05T18:26:14.530Z,18.87
2023-07-05T18:28:44.628Z,18.84
2023-07-05T18:31:16.813Z,18.81
2023-07-05T18:33:43.597Z,18.78
2023-07-05T18:36:11.434Z,18.75
2023-07-05T18:38:38.911Z,18.71
2023-07-05T18:41:12.336Z,18.68
2023-07-05T18:43:41.981Z,18.64
2023-07-05T18:46:09.708Z,18.61
2023-07-05T18:48:36.929Z,18.61
2023-07-05T18:51:05.146Z,18.59
2023-07-05T18:53:32.785Z,18.54
2023-07-05T18:56:03.679Z,18.53
2023-07-05T18:58:32.562Z,18.53
2023-07-05T19:01:11.581Z,18.52
2023-07-05T19:03:38.232Z,18.51
2023-07-05T19:06:09.538Z,18.49
2023-07-05T19:08:38.021Z,18.48
2023-07-05T19:11:20.400Z,18.46
2023-07-05T19:13:49.650Z,18.44
2023-07-05T19:16:20.684Z,18.41
2023-07-05T19:18:48.584Z,18.38
2023-07-05T19:21:17.062Z,18.36
2023-07-05T19:23:48.904Z,18.36
2023-07-05T19:26:17.870Z,18.38
2023-07-05T19:28:49.895Z,18.39
2023-07-05T19:31:21.936Z,18.41
2023-07-05T19:33:50.760Z,18.42
2023-07-05T19:36:21.046Z,18.43
2023-07-05T19:38:49.310Z,18.45
2023-07-05T19:41:17.131Z,18.47
2023-07-05T19:43:44.921Z,18.48
2023-07-05T19:46:16.580Z,18.49
2023-07-05T19:48:43.376Z,18.48
2023-07-05T19:51:11.992Z,18.49
2023-07-05T19:53:38.573Z,18.51
2023-07-05T19:56:06.069Z,18.52
2023-07-05T19:58:33.317Z,18.53
2023-07-05T20:01:01.019Z,18.55
2023-07-05T20:03:27.857Z,18.55
2023-07-05T20:05:55.013Z,18.53
2023-07-05T20:08:21.724Z,18.52
2023-07-05T20:10:48.235Z,18.51
2023-07-05T20:13:16.350Z,18.50
2023-07-05T20:15:55.036Z,18.49
2023-07-05T20:18:21.972Z,18.46
2023-07-05T20:20:51.059Z,18.46
2023-07-05T20:23:23.781Z,18.47
2023-07-05T20:25:50.259Z,18.47
2023-07-05T20:28:19.416Z,18.47
2023-07-05T20:30:57.677Z,18.47
2023-07-05T20:33:27.088Z,18.45
2023-07-05T20:36:05.240Z,18.44
2023-07-05T20:38:32.076Z,18.43
2023-07-05T20:40:59.090Z,18.40
2023-07-05T20:43:26.030Z,18.39
2023-07-05T20:46:00.205Z,18.38
2023-07-05T20:48:28.422Z,18.36
2023-07-05T20:51:05.025Z,18.34
2023-07-05T20:53:31.751Z,18.32
2023-07-05T20:56:00.856Z,18.29
2023-07-05T20:58:33.773Z,18.26
2023-07-05T21:01:01.142Z,18.23
2023-07-05T21:03:30.644Z,18.22
2023-07-05T21:06:00.064Z,18.22
2023-07-05T21:08:28.418Z,18.20
2023-07-05T21:10:55.045Z,18.20
2023-07-05T21:13:22.794Z,18.19
2023-07-05T21:15:50.065Z,18.20
2023-07-05T21:18:16.603Z,18.20
2023-07-05T21:20:45.578Z,18.19
2023-07-05T21:23:14.359Z,18.19
2023-07-05T21:25:40.767Z,18.20
2023-07-05T21:28:07.332Z,18.20
2023-07-05T21:30:33.900Z,18.21
2023-07-05T21:33:00.476Z,18.21
2023-07-05T21:35:31.431Z,18.21
2023-07-05T21:37:58.613Z,18.21
2023-07-05T21:40:30.300Z,18.21
2023-07-05T21:42:56.970Z,18.20
2023-07-05T21:45:24.692Z,18.19
2023-07-05T21:47:51.618Z,18.19
2023-07-05T21:50:20.714Z,18.19
2023-07-05T21:52:50.515Z,18.18
2023-07-05T21:55:17.386Z,18.17
2023-07-05T21:57:46.898Z,18.15
2023-07-05T22:00:25.441Z,18.13
2023-07-05T22:02:56.253Z,18.11
2023-07-05T22:05:24.648Z,18.09
2023-07-05T22:07:51.380Z,18.07
2023-07-05T22:10:19.334Z,18.04
2023-07-05T22:12:54.525Z,18.02
2023-07-05T22:15:24.560Z,17.98
2023-07-05T22:17:55.082Z,17.97
2023-07-05T22:20:27.731Z,17.94
2023-07-05T22:22:54.423Z,17.93
2023-07-05T22:25:22.189Z,17.94
2023-07-05T22:27:49.207Z,17.94
2023-07-05T22:30:17.848Z,17.94
2023-07-05T22:32:46.072Z,17.93
2023-07-05T22:35:13.688Z,17.93
2023-07-05T22:37:40.704Z,17.90
2023-07-05T22:40:11.769Z,17.88
2023-07-05T22:42:42.735Z,17.85
2023-07-05T22:45:13.210Z,17.82
2023-07-05T22:47:41.743Z,17.82
2023-07-05T22:50:12.605Z,17.81
2023-07-05T22:52:39.404Z,17.80
2023-07-05T22:55:08.053Z,17.79
2023-07-05T22:57:35.328Z,17.80
2023-07-05T23:00:02.678Z,17.80
2023-07-05T23:02:29.245Z,17.82
2023-07-05T23:04:56.681Z,17.84
2023-07-05T23:07:23.246Z,17.85
2023-07-05T23:09:49.704Z,17.87
2023-07-05T23:12:18.737Z,17.88
2023-07-05T23:14:45.557Z,17.89
2023-07-05T23:17:13.276Z,17.91
2023-07-05T23:19:39.765Z,17.93
2023-07-05T23:22:06.305Z,17.95
2023-07-05T23:24:33.094Z,17.96
2023-07-05T23:27:02.078Z,17.97
2023-07-05T23:29:28.538Z,17.99
2023-07-05T23:31:56.144Z,17.99
2023-07-05T23:34:22.685Z,17.99
2023-07-05T23:36:49.239Z,17.99
2023-07-05T23:39:15.705Z,17.98
2023-07-05T23:41:42.561Z,17.99
2023-07-05T23:44:14.192Z,17.98
2023-07-05T23:46:40.902Z,17.98
2023-07-05T23:49:10.962Z,17.96
2023-07-05T23:51:38.880Z,17.96
2023-07-05T23:54:09.510Z,17.95
2023-07-05T23:56:46.688Z,17.95
2023-07-05T23:59:19.578Z,17.94
